createdAt,value
2022-08-26T00:02:11.271Z,76.91
2022-08-26T00:05:12.932Z,76.96
2022-08-26T00:08:15.325Z,76.53
2022-08-26T00:11:26.840Z,76.12
2022-08-26T00:14:30.946Z,76.06
2022-08-26T00:17:33.292Z,75.80
2022-08-26T00:20:34.993Z,75.72
2022-08-26T00:23:37.164Z,75.22
2022-08-26T00:26:39.323Z,75.29
2022-08-26T00:29:43.076Z,75.46
2022-08-26T00:32:46.365Z,75.87
2022-08-26T00:35:48.138Z,76.31
2022-08-26T00:38:49.849Z,76.58
2022-08-26T00:41:51.504Z,76.24
2022-08-26T00:44:53.634Z,76.19
2022-08-26T00:47:56.748Z,76.57
2022-08-26T00:50:59.226Z,76.38
2022-08-26T00:54:03.622Z,76.89
2022-08-26T00:57:08.611Z,76.15
2022-08-26T01:00:19.794Z,75.82
2022-08-26T01:03:22.747Z,75.68
2022-08-26T01:06:24.955Z,75.59
2022-08-26T01:09:27.532Z,75.17
2022-08-26T01:12:30.055Z,75.11
2022-08-26T01:15:35.532Z,75.05
2022-08-26T01:18:37.174Z,74.81
2022-08-26T01:21:41.479Z,74.78
2022-08-26T01:24:43.302Z,74.45
2022-08-26T01:27:44.876Z,74.39
2022-08-26T01:30:52.998Z,73.64
2022-08-26T01:33:57.677Z,73.92
2022-08-26T01:37:05.429Z,74.11
2022-08-26T01:40:08.315Z,74.49
2022-08-26T01:43:14.680Z,74.75
2022-08-26T01:46:16.336Z,74.74
2022-08-26T01:49:18.127Z,74.35
2022-08-26T01:52:21.414Z,74.50
2022-08-26T01:55:32.598Z,74.11
2022-08-26T01:58:37.008Z,74.44
2022-08-26T02:01:38.670Z,74.17
2022-08-26T02:04:41.736Z,74.46
2022-08-26T02:07:44.118Z,73.61
2022-08-26T02:10:45.745Z,73.50
2022-08-26T02:14:07.950Z,73.20
2022-08-26T02:17:10.518Z,72.61
2022-08-26T02:20:15.011Z,72.83
2022-08-26T02:23:17.013Z,73.23
2022-08-26T02:26:20.766Z,72.75
2022-08-26T02:29:25.116Z,72.02
2022-08-26T02:32:27.156Z,72.33
2022-08-26T02:35:28.754Z,72.64
2022-08-26T02:38:32.162Z,72.38
2022-08-26T02:41:33.992Z,71.76
2022-08-26T02:44:35.807Z,72.13
2022-08-26T02:47:37.506Z,72.29
2022-08-26T02:50:39.506Z,71.75
2022-08-26T02:53:41.172Z,71.95
2022-08-26T02:56:44.514Z,72.23
2022-08-26T02:59:46.122Z,72.74
2022-08-26T03:02:48.109Z,72.61
2022-08-26T03:05:51.318Z,72.87
2022-08-26T03:08:52.939Z,73.32
2022-08-26T03:11:55.580Z,73.14
2022-08-26T03:14:57.609Z,73.67
2022-08-26T03:17:59.970Z,73.94
2022-08-26T03:21:11.862Z,74.37
2022-08-26T03:24:13.725Z,74.83
2022-08-26T03:27:15.563Z,75.20
2022-08-26T03:30:37.933Z,75.89
2022-08-26T03:33:40.717Z,76.09
2022-08-26T03:36:42.278Z,76.37
2022-08-26T03:39:44.881Z,77.69
2022-08-26T03:42:46.446Z,77.67
2022-08-26T03:45:48.036Z,77.82
2022-08-26T03:48:49.610Z,77.78
2022-08-26T03:51:51.589Z,77.98
2022-08-26T03:54:53.384Z,75.89
2022-08-26T03:57:54.986Z,77.55
2022-08-26T04:00:56.905Z,77.85
2022-08-26T04:04:00.424Z,77.10
2022-08-26T04:07:02.346Z,77.32
2022-08-26T04:10:04.287Z,77.82
2022-08-26T04:13:06.471Z,77.83
2022-08-26T04:16:08.144Z,78.27
2022-08-26T04:19:12.748Z,78.28
2022-08-26T04:22:14.342Z,77.93
2022-08-26T04:25:25.580Z,77.34
2022-08-26T04:28:27.485Z,77.86
2022-08-26T04:31:29.148Z,77.46
2022-08-26T04:34:32.833Z,78.21
2022-08-26T04:37:35.214Z,78.63
2022-08-26T04:40:36.886Z,79.16
2022-08-26T04:43:41.990Z,78.65
2022-08-26T04:46:43.941Z,78.14
2022-08-26T04:49:45.758Z,78.62
2022-08-26T04:52:47.398Z,78.76
2022-08-26T04:55:49.227Z,78.11
2022-08-26T04:58:56.819Z,78.36
2022-08-26T05:01:59.689Z,78.32
2022-08-26T05:05:01.465Z,78.44
2022-08-26T05:08:03.167Z,79.61
2022-08-26T05:11:05.385Z,80.35
2022-08-26T05:14:07.438Z,80.44
2022-08-26T05:17:09.393Z,80.69
2022-08-26T05:20:16.430Z,81.39
2022-08-26T05:23:19.613Z,81.37
2022-08-26T05:26:23.045Z,82.25
2022-08-26T05:29:25.234Z,82.57
2022-08-26T05:32:27.506Z,82.79
2022-08-26T05:35:34.326Z,82.46
2022-08-26T05:38:35.882Z,80.73
2022-08-26T05:41:38.595Z,80.11
2022-08-26T05:44:55.653Z,79.84
2022-08-26T05:47:57.899Z,79.13
2022-08-26T05:51:02.096Z,78.48
2022-08-26T05:54:03.837Z,77.74
2022-08-26T05:57:05.618Z,77.07
2022-08-26T06:00:07.929Z,77.60
2022-08-26T06:03:13.794Z,78.33
2022-08-26T06:06:19.976Z,78.38
2022-08-26T06:09:22.423Z,79.26
2022-08-26T06:12:25.111Z,77.16
2022-08-26T06:15:31.800Z,75.50
2022-08-26T06:18:36.307Z,74.82
2022-08-26T06:21:39.341Z,74.54
2022-08-26T06:24:59.580Z,73.95
2022-08-26T06:28:01.630Z,73.34
2022-08-26T06:31:06.239Z,73.22
2022-08-26T06:34:10.739Z,74.24
2022-08-26T06:37:13.486Z,73.78
2022-08-26T06:40:15.708Z,73.59
2022-08-26T06:43:18.480Z,73.36
2022-08-26T06:46:21.708Z,73.53
2022-08-26T06:49:27.161Z,73.85
2022-08-26T06:52:29.265Z,73.99
2022-08-26T06:55:51.908Z,73.33
2022-08-26T06:58:53.879Z,77.15
2022-08-26T07:01:57.562Z,77.14
2022-08-26T07:05:04.934Z,75.21
2022-08-26T07:08:06.614Z,74.78
2022-08-26T07:11:08.854Z,69.35
2022-08-26T07:14:10.743Z,69.56
2022-08-26T07:17:14.008Z,72.13
2022-08-26T07:20:16.505Z,78.46
2022-08-26T07:23:18.936Z,74.41
2022-08-26T07:26:26.820Z,71.64
2022-08-26T07:29:30.418Z,69.42
2022-08-26T07:32:32.822Z,70.87
2022-08-26T07:35:34.586Z,71.00
2022-08-26T07:38:36.613Z,71.64
2022-08-26T07:41:38.223Z,71.61
2022-08-26T07:44:40.967Z,71.14
2022-08-26T07:47:42.821Z,70.98
2022-08-26T07:50:49.483Z,70.70
2022-08-26T07:53:53.195Z,71.27
2022-08-26T07:56:55.130Z,70.75
2022-08-26T07:59:58.057Z,70.03
2022-08-26T08:03:00.445Z,69.69
2022-08-26T08:06:02.070Z,70.32
2022-08-26T08:09:03.962Z,73.34
2022-08-26T08:12:06.736Z,68.35
2022-08-26T08:15:09.010Z,67.70
2022-08-26T08:18:15.825Z,67.76
2022-08-26T08:21:21.974Z,72.33
2022-08-26T08:24:25.347Z,66.71
2022-08-26T08:27:27.201Z,65.44
2022-08-26T08:30:29.131Z,66.42
2022-08-26T08:33:31.344Z,61.63
2022-08-26T08:36:35.912Z,66.66
2022-08-26T08:39:37.878Z,63.40
2022-08-26T08:42:59.298Z,61.83
2022-08-26T08:46:03.701Z,61.78
2022-08-26T08:49:05.984Z,62.78
2022-08-26T08:52:11.410Z,61.18
2022-08-26T08:55:17.373Z,62.96
2022-08-26T08:58:20.777Z,59.38
2022-08-26T09:01:25.649Z,59.63
2022-08-26T09:04:30.437Z,61.33
2022-08-26T09:07:38.797Z,60.68
2022-08-26T09:10:50.951Z,58.55
2022-08-26T09:13:53.461Z,57.74
2022-08-26T09:17:02.507Z,57.81
2022-08-26T09:20:04.378Z,57.15
2022-08-26T09:23:06.056Z,56.17
2022-08-26T09:26:29.092Z,59.09
2022-08-26T09:29:33.966Z,55.05
2022-08-26T09:32:36.359Z,53.93
2022-08-26T09:35:39.049Z,53.62
2022-08-26T09:38:41.476Z,56.01
2022-08-26T09:41:43.734Z,53.56
2022-08-26T09:44:55.945Z,51.48
2022-08-26T09:48:01.377Z,51.68
2022-08-26T09:51:07.081Z,52.02
2022-08-26T09:54:09.305Z,53.46
2022-08-26T09:57:16.702Z,53.02
2022-08-26T10:00:26.813Z,49.97
2022-08-26T10:03:33.066Z,51.17
2022-08-26T10:06:38.273Z,50.68
2022-08-26T10:09:40.610Z,52.09
2022-08-26T10:12:44.963Z,54.73
2022-08-26T10:15:52.516Z,50.50
2022-08-26T10:19:08.752Z,52.10
2022-08-26T10:22:12.504Z,50.00
2022-08-26T10:25:16.337Z,50.75
2022-08-26T10:28:20.763Z,51.64
2022-08-26T10:31:28.556Z,47.27
2022-08-26T10:34:31.473Z,47.51
2022-08-26T10:37:36.569Z,48.92
2022-08-26T10:40:44.348Z,48.57
2022-08-26T10:43:45.938Z,50.90
2022-08-26T10:46:54.443Z,47.68
2022-08-26T10:50:00.436Z,45.81
2022-08-26T10:53:08.677Z,47.02
2022-08-26T10:56:19.209Z,46.70
2022-08-26T10:59:20.924Z,41.94
2022-08-26T11:02:47.164Z,44.06
2022-08-26T11:06:09.148Z,44.76
2022-08-26T11:09:10.767Z,42.36
2022-08-26T11:12:31.096Z,43.25
2022-08-26T11:15:40.056Z,43.24
2022-08-26T11:18:42.636Z,43.42
2022-08-26T11:22:02.500Z,43.67
2022-08-26T11:25:06.558Z,42.40
2022-08-26T11:28:09.208Z,42.49
2022-08-26T11:31:12.873Z,41.45
2022-08-26T11:34:14.596Z,42.54
2022-08-26T11:37:16.367Z,41.81
2022-08-26T11:40:20.639Z,42.04
2022-08-26T11:43:23.986Z,41.09
2022-08-26T11:46:27.467Z,40.26
2022-08-26T11:49:29.600Z,39.74
2022-08-26T11:52:31.289Z,38.39
2022-08-26T11:55:34.973Z,37.26
2022-08-26T11:58:36.842Z,37.49
2022-08-26T12:01:40.289Z,39.09
2022-08-26T12:04:42.471Z,40.18
2022-08-26T12:07:44.503Z,40.25
2022-08-26T12:10:46.513Z,36.76
2022-08-26T12:14:15.524Z,36.83
2022-08-26T12:17:19.371Z,35.54
2022-08-26T12:20:31.080Z,37.33
2022-08-26T12:23:36.545Z,37.25
2022-08-26T12:26:43.416Z,36.28
2022-08-26T12:29:48.499Z,37.13
2022-08-26T12:32:58.787Z,39.08
2022-08-26T12:36:02.090Z,40.17
2022-08-26T12:39:08.477Z,39.61
2022-08-26T12:42:13.621Z,36.23
2022-08-26T12:45:15.276Z,36.31
2022-08-26T12:48:21.701Z,34.46
2022-08-26T12:51:27.160Z,33.17
2022-08-26T12:54:49.553Z,33.10
2022-08-26T12:58:10.112Z,35.02
2022-08-26T13:01:12.666Z,35.56
2022-08-26T13:04:33.491Z,33.96
2022-08-26T13:07:35.412Z,32.45
2022-08-26T13:10:37.987Z,32.89
2022-08-26T13:13:40.263Z,33.24
2022-08-26T13:16:41.949Z,33.48
2022-08-26T13:19:43.743Z,35.20
2022-08-26T13:22:45.345Z,36.41
2022-08-26T13:25:55.544Z,36.92
2022-08-26T13:29:01.716Z,37.96
2022-08-26T13:32:04.839Z,38.35
2022-08-26T13:35:06.737Z,37.51
2022-08-26T13:38:14.716Z,37.54
2022-08-26T13:41:34.665Z,37.81
2022-08-26T13:44:39.013Z,38.73
2022-08-26T13:47:41.170Z,39.87
2022-08-26T13:50:43.326Z,39.18
2022-08-26T13:53:45.042Z,40.43
2022-08-26T13:56:47.281Z,41.33
2022-08-26T13:59:50.054Z,41.77
2022-08-26T14:02:51.722Z,41.76
2022-08-26T14:05:58.584Z,41.75
2022-08-26T14:09:01.434Z,41.86
2022-08-26T14:12:03.320Z,40.95
2022-08-26T14:15:05.160Z,41.53
2022-08-26T14:18:08.703Z,41.17
2022-08-26T14:21:12.045Z,40.41
2022-08-26T14:24:13.857Z,41.30
2022-08-26T14:27:15.745Z,40.25
2022-08-26T14:30:17.561Z,41.07
2022-08-26T14:33:20.119Z,41.43
2022-08-26T14:36:34.088Z,41.63
2022-08-26T14:39:35.752Z,43.21
2022-08-26T14:42:37.324Z,42.19
2022-08-26T14:48:44.850Z,42.96
2022-08-26T14:51:46.679Z,42.04
2022-08-26T14:54:48.309Z,42.82
2022-08-26T14:57:56.974Z,42.29
2022-08-26T15:00:58.630Z,42.95
2022-08-26T15:04:05.841Z,43.88
2022-08-26T15:07:07.557Z,43.14
2022-08-26T15:10:11.404Z,43.85
2022-08-26T15:13:13.024Z,43.53
2022-08-26T15:16:14.885Z,44.19
2022-08-26T15:19:17.009Z,44.01
2022-08-26T15:22:18.705Z,43.99
2022-08-26T15:25:20.712Z,43.50
2022-08-26T15:28:23.110Z,44.16
2022-08-26T15:31:25.802Z,43.88
2022-08-26T15:34:27.570Z,44.49
2022-08-26T15:37:29.201Z,44.61
2022-08-26T15:40:30.986Z,45.58
2022-08-26T15:43:32.751Z,45.99
2022-08-26T15:46:34.746Z,45.88
2022-08-26T15:49:38.650Z,45.27
2022-08-26T15:52:40.294Z,44.87
2022-08-26T15:55:41.858Z,45.46
2022-08-26T15:58:43.513Z,46.48
2022-08-26T16:01:46.514Z,45.19
2022-08-26T16:04:48.312Z,45.85
2022-08-26T16:07:49.923Z,45.92
2022-08-26T16:10:51.596Z,46.84
2022-08-26T16:13:53.349Z,47.74
2022-08-26T16:16:54.950Z,48.46
2022-08-26T16:19:56.549Z,48.62
2022-08-26T16:22:58.427Z,48.22
2022-08-26T16:26:00.024Z,48.93
2022-08-26T16:29:02.658Z,49.20
2022-08-26T16:32:08.662Z,48.64
2022-08-26T16:35:10.277Z,49.25
2022-08-26T16:38:11.893Z,49.06
2022-08-26T16:41:13.539Z,49.08
2022-08-26T16:44:15.151Z,49.58
2022-08-26T16:47:17.994Z,49.66
2022-08-26T16:50:20.458Z,48.37
2022-08-26T16:53:22.166Z,48.81
2022-08-26T16:56:33.416Z,48.66
2022-08-26T16:59:36.091Z,47.64
2022-08-26T17:02:37.792Z,47.87
2022-08-26T17:05:40.324Z,46.35
2022-08-26T17:08:42.098Z,46.98
2022-08-26T17:11:43.915Z,47.70
2022-08-26T17:14:45.793Z,49.13
2022-08-26T17:17:47.477Z,50.57
2022-08-26T17:20:49.194Z,51.12
2022-08-26T17:23:51.991Z,51.18
2022-08-26T17:26:55.735Z,51.59
2022-08-26T17:29:57.529Z,51.02
2022-08-26T17:32:59.141Z,49.01
2022-08-26T17:36:01.565Z,48.79
2022-08-26T17:39:03.797Z,45.04
2022-08-26T17:42:05.596Z,41.50
2022-08-26T17:45:07.784Z,40.45
2022-08-26T17:48:10.587Z,39.41
2022-08-26T17:51:13.428Z,39.01
2022-08-26T17:54:15.298Z,42.74
2022-08-26T17:57:16.929Z,45.81
2022-08-26T18:00:21.554Z,47.57
2022-08-26T18:03:23.586Z,49.44
2022-08-26T18:06:25.619Z,50.65
2022-08-26T18:09:29.362Z,51.54
2022-08-26T18:12:31.606Z,52.65
2022-08-26T18:15:33.349Z,53.89
2022-08-26T18:18:35.366Z,54.50
2022-08-26T18:21:37.057Z,55.12
2022-08-26T18:24:38.699Z,55.36
2022-08-26T18:27:40.277Z,55.54
2022-08-26T18:30:42.451Z,55.82
2022-08-26T18:33:44.254Z,56.31
2022-08-26T18:36:45.969Z,56.30
2022-08-26T18:39:47.593Z,56.04
2022-08-26T18:42:54.104Z,56.52
2022-08-26T18:46:06.105Z,56.76
2022-08-26T18:49:08.385Z,57.30
2022-08-26T18:52:10.182Z,57.62
2022-08-26T18:55:12.905Z,57.19
2022-08-26T18:58:16.399Z,56.90
2022-08-26T19:01:18.589Z,56.77
2022-08-26T19:04:20.587Z,56.68
2022-08-26T19:07:22.506Z,56.20
2022-08-26T19:10:24.860Z,57.02
2022-08-26T19:13:27.032Z,55.44
2022-08-26T19:16:29.110Z,55.83
2022-08-26T19:19:31.700Z,55.21
2022-08-26T19:22:33.461Z,56.13
2022-08-26T19:25:42.105Z,56.73
2022-08-26T19:28:44.199Z,56.16
2022-08-26T19:31:46.420Z,56.50
2022-08-26T19:34:54.899Z,55.51
2022-08-26T19:37:57.178Z,55.83
2022-08-26T19:40:58.953Z,56.15
2022-08-26T19:44:05.472Z,56.85
2022-08-26T19:47:07.987Z,56.89
2022-08-26T19:50:11.554Z,57.45
2022-08-26T19:53:13.282Z,57.98
2022-08-26T19:56:15.329Z,58.29
2022-08-26T19:59:17.784Z,57.52
2022-08-26T20:02:19.703Z,57.67
2022-08-26T20:05:22.080Z,57.25
2022-08-26T20:08:23.714Z,57.48
2022-08-26T20:11:25.759Z,57.63
2022-08-26T20:14:27.488Z,57.10
2022-08-26T20:17:29.065Z,56.93
2022-08-26T20:20:49.341Z,56.87
2022-08-26T20:23:51.675Z,57.63
2022-08-26T20:26:53.411Z,57.62
2022-08-26T20:29:55.486Z,57.59
2022-08-26T20:32:57.467Z,57.22
2022-08-26T20:35:59.378Z,55.82
2022-08-26T20:39:01.123Z,56.04
2022-08-26T20:42:03.558Z,55.41
2022-08-26T20:45:06.907Z,56.25
2022-08-26T20:48:08.898Z,56.68
2022-08-26T20:51:10.821Z,56.98
2022-08-26T20:54:13.150Z,58.18
2022-08-26T20:57:14.776Z,58.98
2022-08-26T21:00:18.225Z,59.57
2022-08-26T21:03:21.682Z,59.86
2022-08-26T21:06:23.485Z,62.29
2022-08-26T21:09:25.818Z,64.45
2022-08-26T21:12:27.441Z,63.38
2022-08-26T21:15:29.680Z,63.10
2022-08-26T21:18:33.044Z,62.20
2022-08-26T21:21:34.872Z,61.53
2022-08-26T21:24:36.502Z,60.98
2022-08-26T21:27:38.294Z,62.35
2022-08-26T21:30:40.227Z,65.10
2022-08-26T21:33:42.012Z,62.62
2022-08-26T21:36:43.937Z,66.50
2022-08-26T21:39:45.505Z,66.70
2022-08-26T21:42:47.084Z,65.00
2022-08-26T21:45:49.645Z,64.03
2022-08-26T21:48:55.072Z,65.11
2022-08-26T21:51:56.634Z,65.97
2022-08-26T21:54:59.227Z,68.19
2022-08-26T21:58:01.049Z,69.19
2022-08-26T22:01:02.754Z,70.80
2022-08-26T22:04:06.874Z,71.48
2022-08-26T22:07:08.449Z,72.02
2022-08-26T22:10:10.289Z,72.69
2022-08-26T22:13:11.943Z,73.70
2022-08-26T22:16:29.524Z,74.44
2022-08-26T22:19:32.024Z,74.10
2022-08-26T22:22:35.820Z,74.17
2022-08-26T22:25:37.491Z,74.54
2022-08-26T22:28:39.417Z,75.30
2022-08-26T22:31:43.796Z,75.67
2022-08-26T22:34:45.992Z,74.89
2022-08-26T22:37:47.589Z,74.41
2022-08-26T22:40:51.001Z,74.14
2022-08-26T22:43:52.912Z,73.96
2022-08-26T22:46:54.506Z,73.81
2022-08-26T22:50:01.938Z,74.17
2022-08-26T22:53:04.352Z,74.13
2022-08-26T22:56:06.318Z,74.59
2022-08-26T22:59:10.265Z,74.39
2022-08-26T23:02:12.092Z,74.22
2022-08-26T23:05:14.551Z,74.48
2022-08-26T23:08:16.593Z,74.34
2022-08-26T23:11:19.171Z,73.77
2022-08-26T23:14:20.739Z,73.91
2022-08-26T23:17:22.299Z,73.96
2022-08-26T23:20:23.905Z,74.48
2022-08-26T23:23:27.568Z,74.61
2022-08-26T23:26:29.163Z,74.60
2022-08-26T23:29:30.725Z,74.35
2022-08-26T23:32:32.290Z,74.76
2022-08-26T23:35:33.841Z,74.05
2022-08-26T23:38:35.397Z,73.80
2022-08-26T23:41:38.397Z,73.71
2022-08-26T23:44:39.939Z,73.62
2022-08-26T23:47:41.507Z,74.42
2022-08-26T23:51:18.509Z,74.02
2022-08-26T23:54:20.137Z,73.74
2022-08-26T23:57:22.842Z,73.67
